Time;durP1;ratioP1;P1;durP2;ratioP2;P2;SDS_P1;SDS_P2;PMS_P1;PMS_P2;Temp;Humidity;BMP_temperature;BMP_pressure;BME280_temperature;BME280_humidity;BME280_pressure;Samples;Min_cycle;Max_cycle;Signal;HPM_P1;HPM_P2
2023/01/12 00:01:21;;;;;;;3.83;3.53;;;;;;;6.71;100.00;98305.22;5033543;28;20170;-61
2023/01/12 00:03:48;;;;;;;3.78;3.47;;;;;;;6.59;100.00;98290.47;5032959;28;20178;-61
2023/01/12 00:06:14;;;;;;;3.28;3.08;;;;;;;6.51;100.00;98277.22;5032892;28;20198;-61
2023/01/12 00:08:40;;;;;;;3.85;3.55;;;;;;;6.64;100.00;98280.78;5032867;28;20628;-61
2023/01/12 00:11:05;;;;;;;3.75;3.47;;;;;;;6.92;100.00;98321.22;5032852;28;20224;-61
2023/01/12 00:13:32;;;;;;;3.10;2.90;;;;;;;6.93;100.00;98331.44;5032808;28;20240;-61
2023/01/12 00:18:43;;;;;;;3.25;3.05;;;;;;;6.58;100.00;98288.81;5032973;28;20636;-61
2023/01/12 00:21:09;;;;;;;3.30;3.00;;;;;;;6.83;100.00;98330.25;5032757;28;20167;-61
2023/01/12 00:23:34;;;;;;;3.92;3.38;;;;;;;6.65;100.00;98290.13;5032616;28;20181;-61
2023/01/12 00:25:59;;;;;;;3.70;3.22;;;;;;;6.83;100.00;98332.84;5033209;28;20179;-61
2023/01/12 00:28:25;;;;;;;3.17;2.92;;;;;;;6.84;100.00;98319.09;5032295;28;20281;-61
2023/01/12 00:30:50;;;;;;;3.28;3.03;;;;;;;6.98;100.00;98326.88;5033355;28;20206;-61
2023/01/12 00:33:16;;;;;;;3.45;3.15;;;;;;;7.07;100.00;98339.22;5032779;28;20218;-61
2023/01/12 00:35:41;;;;;;;3.35;2.90;;;;;;;7.16;100.00;98332.75;5032232;28;20190;-61
2023/01/12 00:38:06;;;;;;;3.55;3.25;;;;;;;7.04;100.00;98338.56;5032491;28;20174;-61
2023/01/12 00:40:35;;;;;;;3.35;3.15;;;;;;;6.98;100.00;98332.00;5032387;28;20209;-61
2023/01/12 00:45:51;;;;;;;3.45;3.20;;;;;;;6.68;100.00;98302.00;5032696;28;20169;-61
2023/01/12 00:48:16;;;;;;;3.53;3.22;;;;;;;6.93;100.00;98339.16;5032703;28;20169;-61
2023/01/12 00:50:41;;;;;;;3.53;3.33;;;;;;;6.65;100.00;98290.13;5032873;28;20182;-61
2023/01/12 00:53:07;;;;;;;3.47;3.17;;;;;;;6.73;100.00;98292.28;5032289;28;20688;-61
2023/01/12 00:55:32;;;;;;;3.13;2.92;;;;;;;6.73;100.00;98292.28;5032261;28;20189;-61
2023/01/12 00:57:58;;;;;;;3.65;3.35;;;;;;;7.08;100.00;98346.03;5035351;28;20545;-61
2023/01/12 01:00:23;;;;;;;3.00;2.80;;;;;;;6.84;100.00;98321.66;5036356;28;20652;-61
2023/01/12 01:02:49;;;;;;;3.25;2.95;;;;;;;6.69;100.00;98303.66;5036908;28;20569;-61
2023/01/12 01:05:16;;;;;;;5.15;3.60;;;;;;;6.38;100.00;98250.53;5036469;28;20320;-61
2023/01/12 01:07:42;;;;;;;3.72;3.47;;;;;;;6.64;100.00;98303.09;5036224;28;20183;-61
2023/01/12 01:10:09;;;;;;;5.75;4.22;;;;;;;6.94;100.00;98343.38;5036156;28;20174;-61
2023/01/12 01:12:35;;;;;;;3.90;3.58;;;;;;;7.01;100.00;98351.59;5036055;28;20228;-61
2023/01/12 01:15:00;;;;;;;5.88;3.65;;;;;;;7.02;100.00;98345.53;5036062;28;20584;-61
2023/01/12 01:17:27;;;;;;;3.53;3.22;;;;;;;6.88;100.00;98332.59;5036042;28;20186;-61
2023/01/12 01:19:53;;;;;;;3.22;3.03;;;;;;;6.99;100.00;98341.38;5035915;28;20409;-61
2023/01/12 01:22:18;;;;;;;3.70;3.40;;;;;;;6.97;100.00;98358.66;5035909;28;20213;-61
2023/01/12 01:24:44;;;;;;;3.40;3.10;;;;;;;6.40;100.00;98264.13;5036118;28;20261;-61
2023/01/12 01:27:09;;;;;;;3.42;3.13;;;;;;;6.95;100.00;98350.19;5036185;28;20522;-61
2023/01/12 01:29:35;;;;;;;3.53;3.25;;;;;;;6.81;100.00;98329.53;5035761;28;20624;-61
2023/01/12 01:32:00;;;;;;;3.20;3.00;;;;;;;6.68;100.00;98292.56;5035466;28;20190;-60
2023/01/12 01:34:25;;;;;;;2.90;2.58;;;;;;;7.21;100.00;98352.13;5035690;28;20177;-61
2023/01/12 01:36:51;;;;;;;3.38;2.88;;;;;;;7.11;100.00;98296.97;5036168;28;20628;-61
2023/01/12 01:39:16;;;;;;;2.78;2.60;;;;;;;7.46;100.00;98346.44;5035831;28;20707;-61
2023/01/12 01:41:42;;;;;;;2.08;1.98;;;;;;;7.60;100.00;98341.31;5035597;28;20205;-61
2023/01/12 01:44:29;;;;;;;1.98;1.88;;;;;;;7.72;100.00;98351.75;5035790;28;20639;-61
2023/01/12 01:47:01;;;;;;;2.45;2.25;;;;;;;7.21;100.00;98261.25;5036283;28;20170;-61
2023/01/12 01:50:03;;;;;;;2.70;2.50;;;;;;;7.54;100.00;98347.66;5035469;28;20202;-61
2023/01/12 01:52:35;;;;;;;2.65;2.38;;;;;;;7.19;100.00;98301.69;5033379;28;20586;-61
2023/01/12 01:55:07;;;;;;;2.83;2.38;;;;;;;7.35;100.00;98333.34;5033383;28;20195;-61
2023/01/12 01:57:41;;;;;;;3.00;2.15;;;;;;;7.16;100.00;98302.69;5033649;28;20597;-61
2023/01/12 02:00:09;;;;;;;2.67;2.47;;;;;;;7.16;100.00;98292.38;5033441;28;20221;-61
2023/01/12 02:02:36;;;;;;;3.08;2.78;;;;;;;7.41;100.00;98344.09;5032839;28;20644;-61
2023/01/12 02:05:02;;;;;;;2.92;2.75;;;;;;;7.35;100.00;98331.59;5032869;28;20218;-61
2023/01/12 02:07:28;;;;;;;3.00;2.80;;;;;;;7.06;100.00;98296.38;5033301;28;20683;-61
2023/01/12 02:09:53;;;;;;;3.33;3.13;;;;;;;7.17;100.00;98299.19;5031833;28;20571;-61
2023/01/12 02:18:09;;;;;;;2.78;2.55;;;;;;;7.44;100.00;98343.94;5032999;28;20234;-61
2023/01/12 02:20:50;;;;;;;3.08;2.88;;;;;;;7.39;100.00;98345.94;5032973;28;20222;-61
2023/01/12 02:23:21;;;;;;;2.88;2.67;;;;;;;7.42;100.00;98340.66;5032547;28;20174;-61
2023/01/12 02:26:12;;;;;;;3.40;3.10;;;;;;;7.48;100.00;98344.59;5032835;28;20277;-61
2023/01/12 02:28:49;;;;;;;4.20;2.65;;;;;;;7.00;100.00;98271.00;5034734;28;20181;-61
2023/01/12 02:31:27;;;;;;;2.03;1.92;;;;;;;7.31;100.00;98345.56;5034989;28;20229;-61
2023/01/12 02:33:58;;;;;;;2.72;2.53;;;;;;;7.33;100.00;98345.47;5035376;28;20196;-61
2023/01/12 02:36:41;;;;;;;2.97;2.70;;;;;;;7.20;100.00;98324.75;5034836;28;20568;-60
2023/01/12 02:39:18;;;;;;;2.58;2.40;;;;;;;7.28;100.00;98340.56;5034458;28;20214;-60
2023/01/12 02:45:03;;;;;;;2.95;2.75;;;;;;;7.17;100.00;98340.34;5034532;28;20636;-60
2023/01/12 02:47:53;;;;;;;3.30;2.78;;;;;;;7.16;100.00;98338.69;5034742;28;20174;-61
2023/01/12 02:50:25;;;;;;;17.15;9.80;;;;;;;6.92;100.00;98293.78;5035178;28;20167;-60
2023/01/12 02:52:58;;;;;;;8.30;5.78;;;;;;;7.24;100.00;98346.84;5034390;28;20166;-60
2023/01/12 02:55:27;;;;;;;7.60;5.95;;;;;;;6.88;100.00;98304.31;5034857;28;20617;-60
2023/01/12 02:57:55;;;;;;;4.63;4.03;;;;;;;7.04;100.00;98344.53;5034185;28;20637;-61
2023/01/12 03:00:21;;;;;;;3.17;2.92;;;;;;;6.79;100.00;98303.09;5034127;28;20197;-60
2023/01/12 03:02:46;;;;;;;3.88;3.30;;;;;;;7.05;100.00;98350.50;5034653;28;20250;-60
2023/01/12 03:05:12;;;;;;;4.28;3.83;;;;;;;7.14;100.00;98355.97;5034336;28;20579;-60
2023/01/12 03:07:48;;;;;;;3.67;2.97;;;;;;;6.94;100.00;98301.41;5033780;28;20743;-60
2023/01/12 03:10:32;;;;;;;3.50;3.30;;;;;;;7.14;100.00;98353.41;5034551;28;20569;-61
2023/01/12 03:13:04;;;;;;;3.10;2.90;;;;;;;7.20;100.00;98344.50;5034186;28;20166;-60
2023/01/12 03:15:32;;;;;;;3.53;3.22;;;;;;;7.30;100.00;98355.94;5033899;28;20171;-60
2023/01/12 03:18:05;;;;;;;3.88;3.58;;;;;;;7.17;100.00;98329.25;5033516;28;20250;-60
2023/01/12 03:20:34;;;;;;;3.20;3.00;;;;;;;7.23;100.00;98334.03;5033666;28;20198;-61
2023/01/12 03:23:11;;;;;;;2.67;2.47;;;;;;;6.85;100.00;98271.88;5033679;28;20633;-60
2023/01/12 03:25:41;;;;;;;3.75;3.47;;;;;;;7.23;100.00;98322.00;5034241;28;20188;-60
2023/01/12 03:28:09;;;;;;;3.95;3.58;;;;;;;7.24;100.00;98321.09;5033717;28;20163;-60
2023/01/12 03:30:39;;;;;;;3.97;3.67;;;;;;;7.14;100.00;98314.81;5033555;28;20181;-60
2023/01/12 03:33:06;;;;;;;3.70;3.50;;;;;;;7.29;100.00;98359.44;5034027;28;20221;-60
2023/01/12 03:35:37;;;;;;;3.50;3.25;;;;;;;7.29;100.00;98354.28;5033817;28;20561;-60
2023/01/12 03:38:12;;;;;;;4.70;3.92;;;;;;;6.94;100.00;98312.50;5071433;28;20193;-60
2023/01/12 03:40:48;;;;;;;9.18;4.93;;;;;;;7.20;100.00;98350.47;5071353;28;20257;-60
2023/01/12 03:43:20;;;;;;;6.38;4.38;;;;;;;7.32;100.00;98365.22;5070986;28;20195;-60
2023/01/12 03:45:52;;;;;;;3.67;3.38;;;;;;;7.01;100.00;98319.00;5070886;28;20165;-61
2023/01/12 03:48:25;;;;;;;3.10;2.85;;;;;;;7.22;100.00;98360.69;5070808;28;20227;-60
2023/01/12 03:51:01;;;;;;;3.30;3.10;;;;;;;7.31;100.00;98353.28;5071586;28;20588;-60
2023/01/12 03:53:29;;;;;;;3.40;3.10;;;;;;;7.47;100.00;98373.84;5071105;28;20172;-60
2023/01/12 03:56:01;;;;;;;2.88;2.67;;;;;;;7.08;100.00;98314.31;5071169;28;20185;-60
2023/01/12 03:58:27;;;;;;;3.85;3.55;;;;;;;6.96;100.00;98308.13;5070535;28;20180;-60
2023/01/12 04:00:52;;;;;;;3.10;2.83;;;;;;;7.23;100.00;98376.03;5071140;28;20181;-60
2023/01/12 04:03:17;;;;;;;3.30;3.10;;;;;;;7.17;100.00;98355.78;5071033;28;20749;-60
2023/01/12 04:05:44;;;;;;;3.55;3.17;;;;;;;7.15;100.00;98357.63;5070789;28;20180;-60
2023/01/12 04:08:12;;;;;;;4.80;4.07;;;;;;;7.28;100.00;98363.75;5070418;28;20216;-61
2023/01/12 04:10:37;;;;;;;3.33;3.10;;;;;;;7.15;100.00;98360.19;5070887;28;20177;-60
2023/01/12 04:13:03;;;;;;;3.33;3.08;;;;;;;7.19;100.00;98373.72;5070305;28;20669;-60
2023/01/12 04:15:29;;;;;;;3.20;2.95;;;;;;;7.12;100.00;98362.94;5051794;28;20186;-60
2023/01/12 04:17:54;;;;;;;3.33;3.08;;;;;;;6.79;100.00;98308.22;5032766;28;20175;-61
2023/01/12 04:20:20;;;;;;;3.10;2.80;;;;;;;6.85;100.00;98331.03;5032369;28;20670;-61
2023/01/12 04:22:46;;;;;;;3.20;3.00;;;;;;;6.86;100.00;98324.13;5032715;28;20627;-60
2023/01/12 04:25:14;;;;;;;3.10;2.90;;;;;;;7.06;100.00;98378.69;5032902;28;20194;-60
2023/01/12 04:27:41;;;;;;;3.67;3.38;;;;;;;6.72;100.00;98322.34;5032543;28;20192;-60
2023/01/12 04:30:08;;;;;;;3.85;3.55;;;;;;;6.69;100.00;98325.06;5032530;28;20174;-61
2023/01/12 04:32:33;;;;;;;3.67;3.38;;;;;;;6.82;100.00;98328.63;5033426;28;20229;-60
2023/01/12 04:34:58;;;;;;;3.35;3.08;;;;;;;6.91;100.00;98353.84;5032516;28;20178;-61
2023/01/12 04:37:24;;;;;;;3.00;2.80;;;;;;;7.05;100.00;98384.75;5032969;28;20178;-60
2023/01/12 04:39:49;;;;;;;3.55;3.25;;;;;;;6.55;100.00;98283.88;5032378;28;20202;-60
2023/01/12 04:44:58;;;;;;;2.90;2.70;;;;;;;7.05;100.00;98382.19;5032472;28;20165;-61
2023/01/12 04:47:24;;;;;;;3.40;3.10;;;;;;;6.72;100.00;98316.34;5032664;28;20167;-60
2023/01/12 04:49:49;;;;;;;3.53;3.28;;;;;;;6.89;100.00;98342.81;5032342;28;20197;-61
2023/01/12 04:52:15;;;;;;;3.17;2.97;;;;;;;7.17;100.00;98385.84;5032099;28;20205;-61
2023/01/12 04:54:40;;;;;;;3.35;3.15;;;;;;;6.85;100.00;98328.47;5032282;28;20170;-61
2023/01/12 04:57:05;;;;;;;3.40;3.15;;;;;;;7.18;100.00;98387.50;5010251;28;20249;-60
2023/01/12 04:59:31;;;;;;;3.30;3.10;;;;;;;6.95;100.00;98359.63;5010346;28;20214;-60
2023/01/12 05:01:56;;;;;;;3.83;3.53;;;;;;;7.17;100.00;98398.72;5010314;28;20191;-60
2023/01/12 05:04:21;;;;;;;4.03;3.72;;;;;;;6.93;100.00;98340.91;5010179;28;20266;-61
2023/01/12 05:06:47;;;;;;;3.67;3.47;;;;;;;6.96;100.00;98346.72;5010205;28;20244;-60
2023/01/12 05:11:59;;;;;;;3.50;3.20;;;;;;;7.11;100.00;98387.00;5011093;28;20560;-60
2023/01/12 05:14:25;;;;;;;3.38;3.17;;;;;;;7.05;100.00;98371.09;5010031;28;20187;-60
2023/01/12 05:16:50;;;;;;;3.42;3.13;;;;;;;6.93;100.00;98357.16;5010273;28;20600;-61
2023/01/12 05:19:16;;;;;;;3.03;2.83;;;;;;;7.06;100.00;98394.13;5010266;28;20195;-60
2023/01/12 05:21:42;;;;;;;3.00;2.80;;;;;;;6.57;100.00;98315.44;5010280;28;20661;-60
2023/01/12 05:24:07;;;;;;;3.22;2.95;;;;;;;6.81;100.00;98357.81;5010505;28;20276;-60
2023/01/12 05:26:33;;;;;;;3.42;3.20;;;;;;;6.98;100.00;98383.44;4990467;28;20243;-60
2023/01/12 05:28:58;;;;;;;3.53;3.22;;;;;;;6.90;100.00;98388.19;5025207;28;20270;-60
2023/01/12 05:31:24;;;;;;;3.33;3.03;;;;;;;6.46;100.00;98314.38;5029862;28;20597;-61
2023/01/12 05:33:49;;;;;;;3.47;3.17;;;;;;;6.63;100.00;98337.41;5029504;28;20222;-60
2023/01/12 05:36:16;;;;;;;3.30;3.00;;;;;;;6.91;100.00;98404.44;5029782;28;20217;-61
2023/01/12 05:38:44;;;;;;;2.97;2.78;;;;;;;6.82;100.00;98408.31;5029445;28;20225;-60
2023/01/12 05:41:13;;;;;;;3.25;3.05;;;;;;;6.54;100.00;98349.00;5029618;28;20248;-60
2023/01/12 05:43:51;;;;;;;5.45;4.00;;;;;;;6.66;100.00;98348.38;5029950;28;20207;-60
2023/01/12 05:46:22;;;;;;;4.50;4.07;;;;;;;6.57;100.00;98342.88;5033628;28;20187;-61
2023/01/12 05:48:49;;;;;;;6.93;4.07;;;;;;;7.01;100.00;98395.31;5033974;28;20202;-60
2023/01/12 05:51:15;;;;;;;4.20;3.80;;;;;;;6.80;100.00;98387.03;5033829;28;20282;-61
2023/01/12 05:53:41;;;;;;;4.75;4.05;;;;;;;6.62;100.00;98382.03;5033493;28;20210;-60
2023/01/12 05:56:09;;;;;;;5.40;4.50;;;;;;;6.81;100.00;98411.00;5033260;28;20728;-60
2023/01/12 05:58:34;;;;;;;5.65;4.00;;;;;;;6.71;100.00;98405.50;5035502;28;20577;-60
2023/01/12 06:01:00;;;;;;;8.85;5.72;;;;;;;6.24;100.00;98319.00;5034974;28;20167;-60
2023/01/12 06:03:25;;;;;;;6.53;4.95;;;;;;;6.91;100.00;98405.28;5035202;28;20304;-60
2023/01/12 06:05:55;;;;;;;6.55;4.15;;;;;;;6.86;100.00;98402.13;5035441;28;20174;-60
2023/01/12 06:08:21;;;;;;;3.80;3.40;;;;;;;6.94;100.00;98401.72;5035197;28;20159;-61
2023/01/12 06:10:46;;;;;;;4.15;3.75;;;;;;;6.54;100.00;98361.03;5035649;28;20219;-61
2023/01/12 06:16:03;;;;;;;3.90;3.58;;;;;;;6.84;100.00;98414.25;5035347;28;20224;-60
2023/01/12 06:18:32;;;;;;;4.10;3.70;;;;;;;6.53;100.00;98357.63;5034932;28;20162;-60
2023/01/12 06:21:01;;;;;;;3.10;2.90;;;;;;;6.72;100.00;98368.63;5034894;28;20174;-60
2023/01/12 06:23:27;;;;;;;3.42;3.13;;;;;;;6.86;100.00;98394.41;5034865;28;20272;-60
2023/01/12 06:25:52;;;;;;;3.20;2.90;;;;;;;6.81;100.00;98369.88;5034735;28;20175;-60
2023/01/12 06:28:17;;;;;;;3.05;2.85;;;;;;;6.77;100.00;98366.59;5034764;28;20235;-60
2023/01/12 06:30:43;;;;;;;5.13;4.57;;;;;;;6.84;100.00;98362.81;5034711;28;20522;-60
2023/01/12 06:33:08;;;;;;;11.80;8.50;;;;;;;6.98;100.00;98380.88;5035131;28;20218;-60
2023/01/12 06:35:34;;;;;;;8.07;5.60;;;;;;;7.01;100.00;98374.75;5034585;28;20170;-60
2023/01/12 06:37:59;;;;;;;4.35;3.90;;;;;;;7.30;100.00;98426.25;5035111;28;20537;-61
2023/01/12 06:40:25;;;;;;;3.85;3.50;;;;;;;6.98;100.00;98375.72;5034485;28;20649;-61
2023/01/12 06:42:50;;;;;;;4.50;4.10;;;;;;;7.34;100.00;98425.16;5034508;28;20553;-60
2023/01/12 06:45:16;;;;;;;5.28;4.03;;;;;;;7.17;100.00;98404.66;5035041;28;20170;-60
2023/01/12 06:47:47;;;;;;;4.78;4.30;;;;;;;7.40;100.00;98440.25;5034765;28;20179;-61
2023/01/12 06:50:13;;;;;;;6.43;4.18;;;;;;;7.27;100.00;98417.84;5034686;28;20178;-60
2023/01/12 06:52:38;;;;;;;4.05;3.65;;;;;;;7.05;100.00;98384.75;5034391;28;20277;-61
2023/01/12 06:55:04;;;;;;;4.68;4.28;;;;;;;7.34;100.00;98432.88;5034440;28;20175;-60
2023/01/12 06:57:29;;;;;;;6.10;4.68;;;;;;;7.42;100.00;98438.47;5033944;28;20185;-60
2023/01/12 06:59:55;;;;;;;7.65;6.85;;;;;;;7.25;100.00;98417.97;5033940;28;20199;-60
2023/01/12 07:02:21;;;;;;;5.53;4.90;;;;;;;7.01;100.00;98451.91;5034180;28;20329;-61
2023/01/12 07:04:46;;;;;;;6.57;5.90;;;;;;;7.09;100.00;98449.72;5034669;28;20182;-60
2023/01/12 07:07:12;;;;;;;8.68;7.30;;;;;;;6.67;100.00;98368.03;5034113;28;20221;-60
2023/01/12 07:09:37;;;;;;;10.35;7.35;;;;;;;7.21;100.00;98439.63;5034063;28;20225;-60
2023/01/12 07:12:03;;;;;;;10.68;7.72;;;;;;;7.08;100.00;98402.63;5036423;28;20241;-60
2023/01/12 07:14:29;;;;;;;12.73;9.13;;;;;;;7.37;100.00;98455.88;5053521;28;20639;-60
2023/01/12 07:16:54;;;;;;;10.13;8.18;;;;;;;7.23;100.00;98432.63;5053786;28;20185;-60
2023/01/12 07:19:20;;;;;;;11.55;8.07;;;;;;;7.24;100.00;98442.03;5054220;28;20185;-60
2023/01/12 07:21:47;;;;;;;12.55;8.68;;;;;;;7.30;100.00;98454.56;5053690;28;20174;-60
2023/01/12 07:24:14;;;;;;;24.10;8.25;;;;;;;7.05;100.00;98401.97;5053923;28;20173;-61
2023/01/12 07:26:39;;;;;;;12.40;9.18;;;;;;;7.06;100.00;98398.47;5053594;28;20189;-60
2023/01/12 07:29:05;;;;;;;9.80;8.25;;;;;;;6.88;100.00;98373.75;5053349;28;20173;-60
2023/01/12 07:31:30;;;;;;;10.27;8.38;;;;;;;7.42;100.00;98458.19;5053351;28;20216;-59
2023/01/12 07:33:56;;;;;;;12.70;8.50;;;;;;;7.21;100.00;98407.91;5053571;28;20294;-60
2023/01/12 07:36:21;;;;;;;13.13;9.40;;;;;;;7.48;100.00;98440.69;5053238;28;20165;-60
2023/01/12 07:38:47;;;;;;;16.40;10.68;;;;;;;7.36;100.00;98415.63;5053373;28;20225;-60
2023/01/12 07:43:56;;;;;;;23.08;14.00;;;;;;;7.31;100.00;98424.50;5053377;28;20184;-60
2023/01/12 07:46:23;;;;;;;16.80;10.80;;;;;;;7.57;100.00;98472.81;5053255;28;20656;-60
2023/01/12 07:48:48;;;;;;;11.65;9.27;;;;;;;7.65;100.00;98474.06;5053434;28;20181;-60
2023/01/12 07:51:14;;;;;;;11.73;9.32;;;;;;;7.48;100.00;98440.69;5053444;28;20244;-60
2023/01/12 07:53:39;;;;;;;11.43;8.90;;;;;;;7.86;100.00;98487.47;5053108;28;20277;-60
2023/01/12 07:56:05;;;;;;;11.02;8.02;;;;;;;7.86;100.00;98485.72;5053082;28;20554;-60
2023/01/12 07:58:30;;;;;;;10.80;7.85;;;;;;;7.87;100.00;98471.91;5052948;28;20178;-60
2023/01/12 08:01:00;;;;;;;9.80;8.13;;;;;;;8.01;100.00;98486.59;5053528;28;20169;-60
2023/01/12 08:03:25;;;;;;;7.95;6.10;;;;;;;7.95;100.00;98486.94;5052713;28;20555;-60
2023/01/12 08:05:51;;;;;;;7.05;5.80;;;;;;;7.68;100.00;98430.09;5053033;28;20165;-60
2023/01/12 08:08:16;;;;;;;9.93;7.10;;;;;;;7.84;100.00;98441.19;5052524;28;20235;-61
2023/01/12 08:10:48;;;;;;;9.02;7.15;;;;;;;8.13;100.00;98489.31;5052514;28;20177;-60
2023/01/12 08:13:14;;;;;;;12.18;8.30;;;;;;;8.12;100.00;98487.66;5052836;28;20169;-60
2023/01/12 08:15:45;;;;;;;14.63;9.15;;;;;;;7.97;100.00;98455.00;5052823;28;20166;-60
2023/01/12 08:18:19;;;;;;;15.63;9.90;;;;;;;8.06;100.00;98469.97;5053331;28;20173;-61
2023/01/12 08:20:46;;;;;;;10.60;7.57;;;;;;;8.23;100.00;98482.75;5052307;28;20604;-60
2023/01/12 08:23:28;;;;;;;9.48;7.55;;;;;;;8.26;100.00;98492.84;5052919;28;20182;-60
2023/01/12 08:25:58;;;;;;;11.60;7.82;;;;;;;7.66;100.00;98407.91;5053474;28;20169;-60
2023/01/12 08:28:42;;;;;;;10.07;7.15;;;;;;;7.93;100.00;98443.22;5052891;28;20205;-61
2023/01/12 08:31:09;;;;;;;13.63;9.23;;;;;;;8.38;100.00;98497.28;5053124;28;20248;-61
2023/01/12 08:33:36;;;;;;;15.75;10.55;;;;;;;8.23;100.00;98459.53;5053093;28;20277;-60
2023/01/12 08:36:04;;;;;;;15.25;10.25;;;;;;;8.55;100.00;98488.56;5052809;28;20190;-60
2023/01/12 08:38:30;;;;;;;17.83;9.25;;;;;;;8.44;100.00;98457.44;5050733;28;20548;-60
2023/01/12 08:46:23;;;;;;;15.40;9.77;;;;;;;8.95;100.00;98499.00;5051896;28;20249;-60
2023/01/12 08:48:48;;;;;;;23.10;12.77;;;;;;;8.96;100.00;98489.53;5051191;28;20292;-61
2023/01/12 08:51:14;;;;;;;26.25;12.00;;;;;;;8.58;100.00;98424.78;5052115;28;20617;-60
2023/01/12 08:53:39;;;;;;;10.75;7.47;;;;;;;8.66;100.00;98430.28;5052262;28;20621;-60
2023/01/12 08:56:05;;;;;;;13.52;8.38;;;;;;;8.74;100.00;98442.72;5052315;28;20169;-60
2023/01/12 08:58:31;;;;;;;9.88;7.22;;;;;;;8.98;100.00;98483.31;5052423;28;20599;-60
2023/01/12 09:00:56;;;;;;;11.27;7.38;;;;;;;8.87;100.00;98447.03;5051946;28;20675;-61
2023/01/12 09:03:21;;;;;;;9.07;6.05;;;;;;;9.15;100.00;98495.22;5050821;28;20177;-61
2023/01/12 09:05:47;;;;;;;9.07;6.90;;;;;;;9.20;100.00;98501.72;5050835;28;20161;-61
2023/01/12 09:08:13;;;;;;;15.77;9.80;;;;;;;9.16;100.00;98484.78;5051861;28;20272;-61
2023/01/12 09:10:38;;;;;;;13.90;8.82;;;;;;;9.20;100.00;98495.75;5051797;28;20177;-61
2023/01/12 09:13:04;;;;;;;13.15;8.18;;;;;;;9.23;100.00;98496.41;5052143;28;20169;-61
2023/01/12 09:15:29;;;;;;;10.45;7.07;;;;;;;9.23;100.00;98491.22;5052036;28;20177;-61
2023/01/12 09:17:55;;;;;;;7.78;6.97;;;;;;;8.85;100.00;98443.72;5053264;28;20170;-61
2023/01/12 09:20:21;;;;;;;8.77;6.55;;;;;;;9.28;100.00;98494.38;5055994;28;20217;-61
2023/01/12 09:22:47;;;;;;;8.07;6.38;;;;;;;9.19;100.00;98483.75;5055924;28;20508;-61
2023/01/12 09:25:13;;;;;;;6.75;5.53;;;;;;;9.25;100.00;98479.06;5056523;28;20181;-61
2023/01/12 09:27:38;;;;;;;5.10;4.60;;;;;;;9.00;100.00;98436.78;5056245;28;20202;-61
2023/01/12 09:30:05;;;;;;;7.70;4.97;;;;;;;9.03;100.00;98439.19;5055858;28;20702;-61
2023/01/12 09:32:31;;;;;;;5.53;4.88;;;;;;;9.08;100.00;98445.72;5056307;28;20248;-61
2023/01/12 09:34:58;;;;;;;7.30;5.15;;;;;;;9.06;100.00;98434.66;5056085;28;20176;-61
2023/01/12 09:37:24;;;;;;;5.13;4.63;;;;;;;9.42;100.00;98496.06;5055698;28;20655;-61
2023/01/12 09:39:50;;;;;;;8.55;4.72;;;;;;;9.15;100.00;98439.22;5055900;28;20277;-61
2023/01/12 09:48:09;;;;;;;11.40;7.00;;;;;;;9.16;100.00;98453.81;5055875;28;20172;-61
2023/01/12 09:50:40;;;;;;;12.73;8.05;;;;;;;9.17;100.00;98442.56;5055560;28;20170;-61
2023/01/12 09:53:19;;;;;;;8.10;6.97;;;;;;;9.39;100.00;98473.84;5055754;28;20168;-61
2023/01/12 09:55:56;;;;;;;12.73;7.32;;;;;;;9.56;100.00;98488.28;5056235;28;20561;-61
2023/01/12 09:58:37;;;;;;;7.28;5.90;;;;;;;9.58;100.00;98485.50;5055957;28;20173;-61
2023/01/12 10:01:09;;;;;;;10.60;6.90;;;;;;;9.60;100.00;98480.25;5055932;28;20536;-61
2023/01/12 10:03:40;;;;;;;12.43;7.55;;;;;;;9.41;100.00;98448.78;5055568;28;20627;-61
2023/01/12 10:06:12;;;;;;;18.45;11.57;;;;;;;9.57;100.00;98472.72;5055210;28;20216;-61
2023/01/12 10:08:40;;;;;;;14.35;7.25;;;;;;;9.60;100.00;98464.75;5055171;28;20162;-61
2023/01/12 10:11:20;;;;;;;12.05;7.40;;;;;;;9.74;100.00;98470.69;5055041;28;20205;-61
2023/01/12 10:14:00;;;;;;;10.20;7.68;;;;;;;9.81;100.00;98469.38;5055884;28;20181;-61
2023/01/12 10:16:46;;;;;;;8.85;6.35;;;;;;;9.57;100.00;98466.69;5055902;28;20162;-61
2023/01/12 10:19:23;;;;;;;10.77;6.85;;;;;;;9.32;100.00;98448.53;5054936;28;20193;-61
2023/01/12 10:21:51;;;;;;;8.27;6.35;;;;;;;9.16;100.00;98417.69;5054926;28;20553;-61
2023/01/12 10:24:20;;;;;;;20.90;11.45;;;;;;;9.52;100.00;98456.69;5054610;28;20170;-61
2023/01/12 10:26:49;;;;;;;15.23;8.63;;;;;;;9.04;100.00;98373.75;5055093;28;20170;-61
2023/01/12 10:29:15;;;;;;;14.05;8.63;;;;;;;9.30;100.00;98409.03;5054110;28;20261;-61
2023/01/12 10:31:40;;;;;;;14.85;10.57;;;;;;;9.62;100.00;98441.41;5054164;28;20257;-61
2023/01/12 10:34:10;;;;;;;12.50;7.88;;;;;;;9.44;100.00;98385.78;5054726;28;20643;-61
2023/01/12 10:36:48;;;;;;;11.27;6.97;;;;;;;9.97;100.00;98457.13;5054601;28;20538;-61
2023/01/12 10:39:34;;;;;;;10.95;6.53;;;;;;;9.81;100.00;98422.03;5054557;28;20197;-61
2023/01/12 10:45:16;;;;;;;7.07;5.68;;;;;;;10.09;100.00;98458.13;5054804;28;20165;-61
2023/01/12 10:47:45;;;;;;;8.43;6.30;;;;;;;9.84;100.00;98416.66;5054445;28;20180;-61
2023/01/12 10:50:24;;;;;;;52.92;25.27;;;;;;;9.75;100.00;98388.84;5054170;28;20212;-61
2023/01/12 10:52:55;;;;;;;30.42;16.83;;;;;;;9.59;100.00;98406.28;5054696;28;20632;-61
2023/01/12 10:55:22;;;;;;;42.92;21.60;;;;;;;9.56;100.00;98398.72;5054582;28;20252;-61
2023/01/12 10:57:49;;;;;;;51.38;25.75;;;;;;;9.67;100.00;98429.84;5054243;28;20174;-61
2023/01/12 11:00:23;;;;;;;75.85;35.20;;;;;;;9.58;100.00;98435.63;5054924;28;20354;-61
2023/01/12 11:02:49;;;;;;;62.08;30.15;;;;;;;9.55;100.00;98435.00;5054495;28;20162;-61
2023/01/12 11:05:37;;;;;;;43.83;22.95;;;;;;;9.43;100.00;98439.16;5053814;28;20193;-61
2023/01/12 11:08:20;;;;;;;27.40;14.13;;;;;;;9.49;100.00;98436.19;5054265;28;20296;-61
2023/01/12 11:10:45;;;;;;;14.52;7.35;;;;;;;9.47;100.00;98398.47;5054895;28;20166;-61
2023/01/12 11:13:25;;;;;;;15.52;9.07;;;;;;;9.61;100.00;98404.41;5054001;28;20176;-61
2023/01/12 11:16:04;;;;;;;11.95;7.47;;;;;;;9.98;100.00;98437.28;5053987;28;20275;-61
2023/01/12 11:18:40;;;;;;;5.85;5.15;;;;;;;9.93;100.00;98421.25;5054196;28;20249;-62
2023/01/12 11:21:09;;;;;;;9.13;5.63;;;;;;;9.84;100.00;98401.16;5054486;28;20162;-61
2023/01/12 11:23:40;;;;;;;11.55;6.75;;;;;;;10.11;100.00;98435.56;5053735;28;20173;-61
2023/01/12 11:26:18;;;;;;;6.93;5.85;;;;;;;10.07;100.00;98414.25;5053594;28;20192;-61
2023/01/12 11:28:48;;;;;;;9.88;7.25;;;;;;;9.94;100.00;98384.97;5053388;28;20510;-61
2023/01/12 11:31:20;;;;;;;13.20;8.18;;;;;;;9.76;100.00;98351.75;5053994;28;20166;-61
2023/01/12 11:33:54;;;;;;;8.40;6.57;;;;;;;10.32;100.00;98434.97;5053432;28;20666;-61
2023/01/12 11:36:26;;;;;;;10.30;5.57;;;;;;;10.04;100.00;98382.63;5053811;28;20177;-61
2023/01/12 11:39:02;;;;;;;9.25;5.28;;;;;;;10.23;100.00;98408.91;5053724;28;20170;-61
2023/01/12 11:41:39;;;;;;;6.10;5.20;;;;;;;10.21;100.00;98431.44;5053989;28;20180;-61
2023/01/12 11:44:29;;;;;;;22.10;10.18;;;;;;;10.14;100.00;98418.09;5053431;28;20722;-61
2023/01/12 11:47:03;;;;;;;9.73;6.75;;;;;;;10.21;100.00;98411.56;5053941;28;20166;-61
2023/01/12 11:49:43;;;;;;;9.65;6.35;;;;;;;9.94;100.00;98363.44;5053884;28;20168;-61
2023/01/12 11:52:12;;;;;;;9.10;6.75;;;;;;;10.13;100.00;98382.00;5053512;28;20166;-61
2023/01/12 11:54:38;;;;;;;12.18;7.90;;;;;;;10.25;100.00;98407.88;5053127;28;20174;-61
2023/01/12 11:57:12;;;;;;;10.75;7.53;;;;;;;10.32;100.00;98413.44;5053149;28;20174;-61
2023/01/12 11:59:59;;;;;;;15.30;9.38;;;;;;;10.31;100.00;98404.88;5053315;28;20201;-61
2023/01/12 12:02:31;;;;;;;22.42;11.77;;;;;;;10.29;100.00;98403.31;5053412;28;20178;-61
2023/01/12 12:05:29;;;;;;;13.77;8.88;;;;;;;10.31;100.00;98412.63;5053805;28;20178;-62
2023/01/12 12:08:07;;;;;;;10.90;6.13;;;;;;;10.13;100.00;98350.97;5050663;28;20198;-61
2023/01/12 12:10:53;;;;;;;8.70;6.30;;;;;;;10.13;100.00;98357.91;5050576;28;20652;-60
2023/01/12 12:13:42;;;;;;;9.55;6.28;;;;;;;10.43;100.00;98398.00;5050585;28;20169;-61
2023/01/12 12:16:25;;;;;;;8.00;5.88;;;;;;;10.47;100.00;98402.06;5051051;28;20195;-61
2023/01/12 12:19:24;;;;;;;10.32;6.68;;;;;;;10.52;100.00;98394.81;5049706;28;20213;-61